createdAt,value
2022-10-17T00:00:59.180Z,11.40
2022-10-17T00:03:26.289Z,11.40
2022-10-17T00:05:53.534Z,11.40
2022-10-17T00:08:21.285Z,11.30
2022-10-17T00:10:59.872Z,11.30
2022-10-17T00:13:27.159Z,11.30
2022-10-17T00:15:54.445Z,11.30
2022-10-17T00:18:22.224Z,11.30
2022-10-17T00:20:49.316Z,11.20
2022-10-17T00:23:16.277Z,11.20
2022-10-17T00:25:43.705Z,11.20
2022-10-17T00:28:12.183Z,11.20
2022-10-17T00:30:39.757Z,11.20
2022-10-17T00:33:08.812Z,11.10
2022-10-17T00:35:37.366Z,11.10
2022-10-17T00:38:04.997Z,11.10
2022-10-17T00:40:32.024Z,11.10
2022-10-17T00:42:59.090Z,11.10
2022-10-17T00:45:29.177Z,11.10
2022-10-17T00:48:00.888Z,11.00
2022-10-17T00:50:28.468Z,11.00
2022-10-17T00:53:01.589Z,11.00
2022-10-17T00:55:33.120Z,10.90
2022-10-17T00:58:03.077Z,10.90
2022-10-17T01:00:30.432Z,10.80
2022-10-17T01:02:58.366Z,10.80
2022-10-17T01:05:25.852Z,10.80
2022-10-17T01:07:54.147Z,10.80
2022-10-17T01:13:16.568Z,10.80
2022-10-17T01:15:50.485Z,10.80
2022-10-17T01:18:20.387Z,10.80
2022-10-17T01:21:02.358Z,10.80
2022-10-17T01:23:41.975Z,10.80
2022-10-17T01:26:53.325Z,10.70
2022-10-17T01:29:47.643Z,10.70
2022-10-17T01:32:17.971Z,10.70
2022-10-17T01:35:06.398Z,10.70
2022-10-17T01:37:44.333Z,10.70
2022-10-17T01:40:35.762Z,10.60
2022-10-17T01:43:08.735Z,10.60
2022-10-17T01:46:06.326Z,10.60
2022-10-17T01:48:39.944Z,10.50
2022-10-17T01:51:17.486Z,10.50
2022-10-17T01:53:55.024Z,10.50
2022-10-17T01:56:26.189Z,10.50
2022-10-17T01:59:10.270Z,10.40
2022-10-17T02:01:39.176Z,10.40
2022-10-17T02:04:09.061Z,10.40
2022-10-17T02:06:37.057Z,10.40
2022-10-17T02:09:23.509Z,10.40
2022-10-17T02:12:10.822Z,10.30
2022-10-17T02:14:47.292Z,10.30
2022-10-17T02:17:27.838Z,10.30
2022-10-17T02:20:30.599Z,10.30
2022-10-17T02:23:27.964Z,10.30
2022-10-17T02:26:15.880Z,10.20
2022-10-17T02:28:51.997Z,10.20
2022-10-17T02:31:57.562Z,10.20
2022-10-17T02:34:32.987Z,10.20
2022-10-17T02:37:05.544Z,10.20
2022-10-17T02:39:35.171Z,10.20
2022-10-17T02:42:06.423Z,10.10
2022-10-17T02:44:35.364Z,10.10
2022-10-17T02:47:11.742Z,10.10
2022-10-17T02:49:43.966Z,10.00
2022-10-17T02:52:16.291Z,10.00
2022-10-17T02:54:59.930Z,10.00
2022-10-17T02:57:48.106Z,10.00
2022-10-17T03:00:17.076Z,10.00
2022-10-17T03:02:48.745Z,10.00
2022-10-17T03:05:24.983Z,10.00
2022-10-17T03:07:52.692Z,9.90
2022-10-17T03:10:20.898Z,9.90
2022-10-17T03:12:48.397Z,9.90
2022-10-17T03:15:15.735Z,9.90
2022-10-17T03:17:43.239Z,9.90
2022-10-17T03:20:11.088Z,9.90
2022-10-17T03:22:38.160Z,9.90
2022-10-17T03:25:06.366Z,9.90
2022-10-17T03:27:36.924Z,9.80
2022-10-17T03:30:04.588Z,9.80
2022-10-17T03:32:34.692Z,9.80
2022-10-17T03:35:02.574Z,9.80
2022-10-17T03:37:30.309Z,9.80
2022-10-17T03:39:57.605Z,9.80
2022-10-17T03:42:25.856Z,9.80
2022-10-17T03:44:53.021Z,9.80
2022-10-17T03:47:20.887Z,9.80
2022-10-17T03:49:47.892Z,9.80
2022-10-17T03:52:15.704Z,9.70
2022-10-17T03:54:42.784Z,9.70
2022-10-17T03:57:09.785Z,9.70
2022-10-17T03:59:36.978Z,9.70
2022-10-17T04:02:09.613Z,9.60
2022-10-17T04:04:36.674Z,9.60
2022-10-17T04:07:03.863Z,9.60
2022-10-17T04:09:31.103Z,9.60
2022-10-17T04:12:03.882Z,9.60
2022-10-17T04:14:32.543Z,9.60
2022-10-17T04:17:06.775Z,9.60
2022-10-17T04:19:38.981Z,9.60
2022-10-17T04:22:16.195Z,9.50
2022-10-17T04:24:54.332Z,9.50
2022-10-17T04:27:49.471Z,9.50
2022-10-17T04:30:23.303Z,9.40
2022-10-17T04:32:58.542Z,9.50
2022-10-17T04:35:37.785Z,9.40
2022-10-17T04:38:13.643Z,9.40
2022-10-17T04:40:50.654Z,9.40
2022-10-17T04:43:24.542Z,9.40
2022-10-17T04:45:55.325Z,9.40
2022-10-17T04:48:26.077Z,9.40
2022-10-17T04:50:57.629Z,9.40
2022-10-17T04:53:52.093Z,9.30
2022-10-17T04:56:24.667Z,9.30
2022-10-17T04:59:05.934Z,9.30
2022-10-17T05:01:45.181Z,9.30
2022-10-17T05:04:15.938Z,9.30
2022-10-17T05:06:55.303Z,9.30
2022-10-17T05:09:26.067Z,9.30
2022-10-17T05:12:00.205Z,9.30
2022-10-17T05:14:30.915Z,9.20
2022-10-17T05:17:11.759Z,9.30
2022-10-17T05:19:43.898Z,9.30
2022-10-17T05:22:16.278Z,9.20
2022-10-17T05:24:44.638Z,9.30
2022-10-17T05:27:18.817Z,9.20
2022-10-17T05:29:49.723Z,9.20
2022-10-17T05:32:31.915Z,9.30
2022-10-17T05:35:11.317Z,9.30
2022-10-17T05:37:42.909Z,9.20
2022-10-17T05:40:18.954Z,9.20
2022-10-17T05:42:54.453Z,9.30
2022-10-17T05:45:25.547Z,9.20
2022-10-17T05:47:56.361Z,9.20
2022-10-17T05:50:25.582Z,9.20
2022-10-17T05:53:06.676Z,9.30
2022-10-17T05:55:45.045Z,9.30
2022-10-17T05:58:22.383Z,9.30
2022-10-17T06:01:12.767Z,9.40
2022-10-17T06:03:44.836Z,9.40
2022-10-17T06:06:16.539Z,9.50
2022-10-17T06:08:52.374Z,9.50
2022-10-17T06:11:26.437Z,9.60
2022-10-17T06:14:00.629Z,9.70
2022-10-17T06:16:50.012Z,9.70
2022-10-17T06:19:30.805Z,9.80
2022-10-17T06:21:57.942Z,9.90
2022-10-17T06:24:27.440Z,9.90
2022-10-17T06:26:54.684Z,10.10
2022-10-17T06:29:22.634Z,10.10
2022-10-17T06:31:52.070Z,10.20
2022-10-17T06:34:20.086Z,10.40
2022-10-17T06:36:48.292Z,10.50
2022-10-17T06:39:15.642Z,10.60
2022-10-17T06:41:53.359Z,10.70
2022-10-17T06:44:20.602Z,10.80
2022-10-17T06:47:06.048Z,10.90
2022-10-17T06:49:34.387Z,11.00
2022-10-17T06:52:17.917Z,11.20
2022-10-17T06:55:07.738Z,11.30
2022-10-17T06:57:43.199Z,11.50
2022-10-17T07:00:42.309Z,11.70
2022-10-17T07:03:12.076Z,12.00
2022-10-17T07:05:39.106Z,12.30
2022-10-17T07:08:06.599Z,12.70
2022-10-17T07:10:38.719Z,13.20
2022-10-17T07:13:07.635Z,13.80
2022-10-17T07:15:37.911Z,14.40
2022-10-17T07:18:05.880Z,15.10
2022-10-17T07:20:33.502Z,15.80
2022-10-17T07:23:01.339Z,16.30
2022-10-17T07:25:28.648Z,17.00
2022-10-17T07:28:00.229Z,17.70
2022-10-17T07:30:27.268Z,18.20
2022-10-17T07:33:04.778Z,18.90
2022-10-17T07:35:31.879Z,19.70
2022-10-17T07:37:59.016Z,20.40
2022-10-17T07:40:27.134Z,21.00
2022-10-17T07:42:56.013Z,21.60
2022-10-17T07:45:24.032Z,22.20
2022-10-17T07:47:51.744Z,22.70
2022-10-17T07:50:19.096Z,23.10
2022-10-17T07:52:46.109Z,23.40
2022-10-17T07:55:13.139Z,23.90
2022-10-17T07:57:40.461Z,24.40
2022-10-17T08:00:09.013Z,25.10
2022-10-17T08:02:41.796Z,25.60
2022-10-17T08:05:09.076Z,26.20
2022-10-17T08:07:36.161Z,26.70
2022-10-17T08:10:03.605Z,27.30
2022-10-17T08:12:32.991Z,28.20
2022-10-17T08:15:07.823Z,29.20
2022-10-17T08:17:39.243Z,29.50
2022-10-17T08:20:09.726Z,30.40
2022-10-17T08:22:42.396Z,30.80
2022-10-17T08:25:13.653Z,31.30
2022-10-17T08:27:43.342Z,31.30
2022-10-17T08:30:11.444Z,31.60
2022-10-17T08:32:44.655Z,31.60
2022-10-17T08:35:16.768Z,31.90
2022-10-17T08:37:51.296Z,32.90
2022-10-17T08:40:31.444Z,33.50
2022-10-17T08:43:19.294Z,33.60
2022-10-17T08:45:55.314Z,34.40
2022-10-17T08:48:27.225Z,34.70
2022-10-17T08:51:10.953Z,35.00
2022-10-17T08:53:53.984Z,35.60
2022-10-17T08:56:55.626Z,35.10
2022-10-17T08:59:18.085Z,34.90
2022-10-17T09:01:54.279Z,35.50
2022-10-17T09:04:27.393Z,36.40
2022-10-17T09:07:17.811Z,36.80
2022-10-17T09:10:04.715Z,36.90
2022-10-17T09:12:46.719Z,37.20
2022-10-17T09:15:49.670Z,38.00
2022-10-17T09:18:27.238Z,37.60
2022-10-17T09:20:55.944Z,37.80
2022-10-17T09:23:31.841Z,38.00
2022-10-17T09:26:01.293Z,38.20
2022-10-17T09:28:38.314Z,38.30
2022-10-17T09:31:11.263Z,38.30
2022-10-17T09:33:54.422Z,37.60
2022-10-17T09:36:34.255Z,37.70
2022-10-17T09:39:18.603Z,38.10
2022-10-17T09:41:55.248Z,38.40
2022-10-17T09:44:33.716Z,38.50
2022-10-17T09:47:31.765Z,39.10
2022-10-17T09:50:07.783Z,39.10
2022-10-17T09:52:48.039Z,38.90
2022-10-17T09:55:39.765Z,39.20
2022-10-17T09:58:12.230Z,39.30
2022-10-17T10:00:48.525Z,38.80
2022-10-17T10:03:29.410Z,38.20
2022-10-17T10:06:01.523Z,37.40
2022-10-17T10:08:34.224Z,37.50
2022-10-17T10:11:13.429Z,38.30
2022-10-17T10:13:41.155Z,37.90
2022-10-17T10:16:30.121Z,38.30
2022-10-17T10:18:57.238Z,36.60
2022-10-17T10:21:28.092Z,34.70
2022-10-17T10:24:10.455Z,33.40
2022-10-17T10:26:47.054Z,31.20
2022-10-17T10:29:22.994Z,29.70
2022-10-17T10:31:51.522Z,27.90
2022-10-17T10:34:20.605Z,27.80
2022-10-17T10:36:53.413Z,27.80
2022-10-17T10:39:42.974Z,27.10
2022-10-17T10:42:24.501Z,26.80
2022-10-17T10:44:53.867Z,26.70
2022-10-17T10:47:28.671Z,26.90
2022-10-17T10:50:31.383Z,26.50
2022-10-17T10:53:20.391Z,25.80
2022-10-17T10:55:59.046Z,25.70
2022-10-17T10:58:53.832Z,25.80
2022-10-17T11:01:42.865Z,26.10
2022-10-17T11:04:41.664Z,26.00
2022-10-17T11:07:46.090Z,25.70
2022-10-17T11:10:50.912Z,25.60
2022-10-17T11:13:54.013Z,25.30
2022-10-17T11:16:45.289Z,25.30
2022-10-17T11:19:34.326Z,25.30
2022-10-17T11:22:47.741Z,25.00
2022-10-17T11:25:44.057Z,25.20
2022-10-17T11:28:21.268Z,25.50
2022-10-17T11:31:02.377Z,25.10
2022-10-17T11:33:50.872Z,24.90
2022-10-17T11:36:25.398Z,24.70
2022-10-17T11:39:10.106Z,24.60
2022-10-17T11:41:48.463Z,24.70
2022-10-17T11:44:34.457Z,24.90
2022-10-17T11:47:16.692Z,25.00
2022-10-17T11:49:55.066Z,24.90
2022-10-17T11:52:57.120Z,24.80
2022-10-17T11:55:39.018Z,24.60
2022-10-17T11:58:34.780Z,24.20
2022-10-17T12:01:23.867Z,23.90
2022-10-17T12:04:27.060Z,23.70
2022-10-17T12:07:19.970Z,23.70
2022-10-17T12:09:57.459Z,23.50
2022-10-17T12:12:31.791Z,23.50
2022-10-17T12:15:30.047Z,23.50
2022-10-17T12:18:04.457Z,23.30
2022-10-17T12:20:37.370Z,23.20
2022-10-17T12:23:14.118Z,23.10
2022-10-17T12:26:30.393Z,23.00
2022-10-17T12:29:01.149Z,22.90
2022-10-17T12:31:34.144Z,23.10
2022-10-17T12:34:04.427Z,23.00
2022-10-17T12:36:39.617Z,23.00
2022-10-17T12:39:16.669Z,23.10
2022-10-17T12:41:47.078Z,23.00
2022-10-17T12:44:22.273Z,23.00
2022-10-17T12:47:12.055Z,23.00
2022-10-17T12:49:47.592Z,23.10
2022-10-17T12:52:35.253Z,22.90
2022-10-17T12:55:22.138Z,22.90
2022-10-17T12:58:11.434Z,22.90
2022-10-17T13:01:22.404Z,23.00
2022-10-17T13:03:53.158Z,22.90
2022-10-17T13:06:28.255Z,22.90
2022-10-17T13:09:04.180Z,22.70
2022-10-17T13:11:42.208Z,22.80
2022-10-17T13:14:20.018Z,22.70
2022-10-17T13:16:52.703Z,22.60
2022-10-17T13:19:28.967Z,22.50
2022-10-17T13:22:06.838Z,22.60
2022-10-17T13:24:41.682Z,22.40
2022-10-17T13:27:31.613Z,22.40
2022-10-17T13:30:01.111Z,22.40
2022-10-17T13:32:38.536Z,22.40
2022-10-17T13:35:24.611Z,22.30
2022-10-17T13:38:07.694Z,22.40
2022-10-17T13:40:49.502Z,22.40
2022-10-17T13:43:20.861Z,22.40
2022-10-17T13:45:51.607Z,22.20
2022-10-17T13:48:25.527Z,22.20
2022-10-17T13:51:01.723Z,22.20
2022-10-17T13:53:40.090Z,22.20
2022-10-17T13:56:29.827Z,22.00
2022-10-17T13:59:03.615Z,22.10
2022-10-17T14:01:31.655Z,22.10
2022-10-17T14:04:09.269Z,22.10
2022-10-17T14:06:49.327Z,22.10
2022-10-17T14:09:27.133Z,22.10
2022-10-17T14:12:13.403Z,22.00
2022-10-17T14:15:09.299Z,22.00
2022-10-17T14:17:34.472Z,22.00
2022-10-17T14:20:34.421Z,21.90
2022-10-17T14:23:17.465Z,21.90
2022-10-17T14:25:41.151Z,21.80
2022-10-17T14:28:11.836Z,21.80
2022-10-17T14:30:56.198Z,21.80
2022-10-17T14:33:38.741Z,21.80
2022-10-17T14:36:09.332Z,21.70
2022-10-17T14:38:52.239Z,21.60
2022-10-17T14:41:43.770Z,21.70
2022-10-17T14:44:34.242Z,21.60
2022-10-17T14:47:38.160Z,21.50
2022-10-17T14:50:24.609Z,21.60
2022-10-17T14:53:11.092Z,21.60
2022-10-17T14:55:41.076Z,21.50
2022-10-17T14:58:29.825Z,21.60
2022-10-17T15:01:12.442Z,21.50
2022-10-17T15:03:42.633Z,21.50
2022-10-17T15:06:21.513Z,21.40
2022-10-17T15:08:51.308Z,21.40
2022-10-17T15:11:30.428Z,21.40
2022-10-17T15:14:04.550Z,21.30
2022-10-17T15:16:42.745Z,21.20
2022-10-17T15:19:14.332Z,21.20
2022-10-17T15:21:44.816Z,21.20
2022-10-17T15:24:24.418Z,21.10
2022-10-17T15:26:59.776Z,21.00
2022-10-17T15:29:27.672Z,20.90
2022-10-17T15:31:55.357Z,20.80
2022-10-17T15:34:27.364Z,20.70
2022-10-17T15:36:58.396Z,20.70
2022-10-17T15:39:25.866Z,20.60
2022-10-17T15:42:04.528Z,20.50
2022-10-17T15:44:52.982Z,20.40
2022-10-17T15:47:34.131Z,20.40
2022-10-17T15:50:15.762Z,20.30
2022-10-17T15:53:16.389Z,20.20
2022-10-17T15:55:52.673Z,20.10
2022-10-17T15:58:20.361Z,20.00
2022-10-17T16:00:48.367Z,19.80
2022-10-17T16:03:15.488Z,19.80
2022-10-17T16:05:42.517Z,19.70
2022-10-17T16:08:09.532Z,19.70
2022-10-17T16:10:39.645Z,19.70
2022-10-17T16:13:06.622Z,19.40
2022-10-17T16:15:34.058Z,19.10
2022-10-17T16:18:04.244Z,19.00
2022-10-17T16:20:33.776Z,19.00
2022-10-17T16:23:03.097Z,19.00
2022-10-17T16:25:31.191Z,19.00
2022-10-17T16:27:59.845Z,19.00
2022-10-17T16:30:28.738Z,18.90
2022-10-17T16:32:56.054Z,18.90
2022-10-17T16:35:26.343Z,18.80
2022-10-17T16:37:53.674Z,18.60
2022-10-17T16:40:21.062Z,18.50
2022-10-17T16:42:48.086Z,18.40
2022-10-17T16:45:22.902Z,18.40
2022-10-17T16:47:50.799Z,18.30
2022-10-17T16:50:24.582Z,18.30
2022-10-17T16:53:05.215Z,18.30
2022-10-17T16:55:37.967Z,18.20
2022-10-17T16:58:23.692Z,18.10
2022-10-17T17:00:56.333Z,18.00
2022-10-17T17:03:42.061Z,17.90
2022-10-17T17:06:20.868Z,17.70
2022-10-17T17:08:51.564Z,17.70
2022-10-17T17:11:27.202Z,17.60
2022-10-17T17:14:07.163Z,17.60
2022-10-17T17:16:58.117Z,17.50
2022-10-17T17:19:32.516Z,17.50
2022-10-17T17:22:02.830Z,17.40
2022-10-17T17:24:31.545Z,17.20
2022-10-17T17:27:07.822Z,17.20
2022-10-17T17:29:38.147Z,17.20
2022-10-17T17:32:05.868Z,17.20
2022-10-17T17:34:37.161Z,17.10
2022-10-17T17:37:04.662Z,17.00
2022-10-17T17:39:34.987Z,16.90
2022-10-17T17:42:10.181Z,16.90
2022-10-17T17:44:37.880Z,16.80
2022-10-17T17:47:05.587Z,16.80
2022-10-17T17:49:33.483Z,16.80
2022-10-17T18:06:24.194Z,16.40
2022-10-17T18:08:54.860Z,16.40
2022-10-17T18:11:22.668Z,16.30
2022-10-17T18:14:16.888Z,16.20
2022-10-17T18:16:46.162Z,16.00
2022-10-17T18:19:15.478Z,16.00
2022-10-17T18:21:44.668Z,16.00
2022-10-17T18:24:12.296Z,16.00
2022-10-17T18:26:40.318Z,16.00
2022-10-17T18:29:10.022Z,16.00
2022-10-17T18:31:39.120Z,16.00
2022-10-17T18:34:07.365Z,15.80
2022-10-17T18:36:37.584Z,15.80
2022-10-17T18:39:05.812Z,15.80
2022-10-17T18:41:34.048Z,15.80
2022-10-17T18:44:03.466Z,15.80
2022-10-17T18:46:36.618Z,15.60
2022-10-17T18:49:04.641Z,15.60
2022-10-17T18:51:33.096Z,15.50
2022-10-17T18:54:02.830Z,15.50
2022-10-17T18:56:32.331Z,15.60
2022-10-17T18:58:59.996Z,15.50
2022-10-17T19:01:29.421Z,15.40
2022-10-17T19:03:59.422Z,15.30
2022-10-17T19:06:32.209Z,15.40
2022-10-17T19:09:01.299Z,15.30
2022-10-17T19:11:30.176Z,15.30
2022-10-17T19:13:59.225Z,15.30
2022-10-17T19:16:37.860Z,15.30
2022-10-17T19:19:08.052Z,15.30
2022-10-17T19:21:35.287Z,15.20
2022-10-17T19:24:05.561Z,15.10
2022-10-17T19:26:36.613Z,15.00
2022-10-17T19:29:05.165Z,15.00
2022-10-17T19:31:33.823Z,15.00
2022-10-17T19:34:01.526Z,15.00
2022-10-17T19:36:33.324Z,15.00
2022-10-17T19:39:03.015Z,15.00
2022-10-17T19:41:30.574Z,14.90
2022-10-17T19:43:58.014Z,14.90
2022-10-17T19:46:27.888Z,14.90
2022-10-17T19:48:55.689Z,14.90
2022-10-17T19:51:26.336Z,14.90
2022-10-17T19:53:56.188Z,14.80
2022-10-17T19:56:25.551Z,14.80
2022-10-17T19:58:56.381Z,14.80
2022-10-17T20:01:30.667Z,14.70
2022-10-17T20:03:58.762Z,14.60
2022-10-17T20:06:27.068Z,14.50
2022-10-17T20:08:55.889Z,14.40
2022-10-17T20:11:26.546Z,14.40
2022-10-17T20:13:55.078Z,14.40
2022-10-17T20:16:25.540Z,14.40
2022-10-17T20:18:55.216Z,14.40
2022-10-17T20:21:27.590Z,14.40
2022-10-17T20:23:55.176Z,14.40
2022-10-17T20:26:33.493Z,14.30
2022-10-17T20:29:05.583Z,14.20
2022-10-17T20:31:34.005Z,14.20
2022-10-17T20:34:01.954Z,14.10
2022-10-17T20:36:30.454Z,14.10
2022-10-17T20:38:58.933Z,14.10
2022-10-17T20:41:27.088Z,14.10
2022-10-17T20:43:55.812Z,14.00
2022-10-17T20:46:36.477Z,14.00
2022-10-17T20:49:06.580Z,14.00
2022-10-17T20:51:34.477Z,13.90
2022-10-17T20:54:02.749Z,13.90
2022-10-17T20:56:32.104Z,13.80
2022-10-17T20:59:01.570Z,13.80
2022-10-17T21:01:30.282Z,13.80
2022-10-17T21:04:06.184Z,13.80
2022-10-17T21:06:43.157Z,13.60
2022-10-17T21:09:10.112Z,13.60
2022-10-17T21:11:37.085Z,13.60
2022-10-17T21:14:06.585Z,13.60
2022-10-17T21:16:35.880Z,13.60
2022-10-17T21:19:04.077Z,13.60
2022-10-17T21:21:33.988Z,13.60
2022-10-17T21:24:04.947Z,13.50
2022-10-17T21:26:33.950Z,13.50
2022-10-17T21:29:05.520Z,13.50
2022-10-17T21:31:34.887Z,13.50
2022-10-17T21:34:08.004Z,13.40
2022-10-17T21:36:35.092Z,13.40
2022-10-17T21:39:02.727Z,13.30
2022-10-17T21:41:30.863Z,13.30
2022-10-17T21:44:04.189Z,13.30
2022-10-17T21:46:31.223Z,13.30
2022-10-17T21:49:00.103Z,13.30
2022-10-17T21:51:28.065Z,13.20
2022-10-17T21:53:56.899Z,13.20
2022-10-17T21:56:28.733Z,13.10
2022-10-17T21:58:55.727Z,13.10
2022-10-17T22:01:25.396Z,13.10
2022-10-17T22:03:57.496Z,13.00
2022-10-17T22:06:42.760Z,13.00
2022-10-17T22:09:14.566Z,13.00
2022-10-17T22:11:41.929Z,13.00
2022-10-17T22:14:13.479Z,13.00
2022-10-17T22:16:40.999Z,12.90
2022-10-17T22:19:08.968Z,12.80
2022-10-17T22:21:37.580Z,12.80
2022-10-17T22:24:07.272Z,12.70
2022-10-17T22:26:36.795Z,12.70
2022-10-17T22:29:05.757Z,12.70
2022-10-17T22:31:32.971Z,12.70
2022-10-17T22:33:59.922Z,12.70
2022-10-17T22:36:27.044Z,12.70
2022-10-17T22:38:54.156Z,12.60
2022-10-17T22:41:21.379Z,12.60
2022-10-17T22:43:48.540Z,12.50
2022-10-17T22:46:18.629Z,12.50
2022-10-17T22:48:45.651Z,12.50
2022-10-17T22:51:13.371Z,12.40
2022-10-17T22:53:40.473Z,12.40
2022-10-17T22:56:13.167Z,12.40
2022-10-17T22:58:40.237Z,12.30
2022-10-17T23:01:08.822Z,12.30
2022-10-17T23:03:36.257Z,12.30
2022-10-17T23:06:03.473Z,12.30
2022-10-17T23:08:30.533Z,12.30
2022-10-17T23:10:57.910Z,12.20
2022-10-17T23:13:25.081Z,12.20
2022-10-17T23:15:53.919Z,12.20
2022-10-17T23:18:21.924Z,12.20
2022-10-17T23:20:49.545Z,12.10
2022-10-17T23:23:17.008Z,12.10
2022-10-17T23:25:44.501Z,12.10
2022-10-17T23:28:12.249Z,12.00
2022-10-17T23:30:39.767Z,12.00
2022-10-17T23:33:07.284Z,12.00
2022-10-17T23:35:35.541Z,12.00
2022-10-17T23:38:02.789Z,12.00
2022-10-17T23:40:30.084Z,11.90
2022-10-17T23:42:57.008Z,11.80
2022-10-17T23:45:24.028Z,11.80
2022-10-17T23:47:50.994Z,11.80
2022-10-17T23:50:18.155Z,11.80
2022-10-17T23:52:45.092Z,11.70
2022-10-17T23:55:12.109Z,11.70
2022-10-17T23:57:39.338Z,11.70
